createdAt,value
2023-03-17T00:01:16.549Z,70.65
2023-03-17T00:03:45.584Z,71.40
2023-03-17T00:06:17.353Z,71.03
2023-03-17T00:08:46.238Z,70.91
2023-03-17T00:11:15.013Z,70.71
2023-03-17T00:13:42.268Z,71.19
2023-03-17T00:16:29.325Z,71.35
2023-03-17T00:18:57.615Z,71.73
2023-03-17T00:21:30.569Z,71.47
2023-03-17T00:23:58.447Z,71.80
2023-03-17T00:26:25.242Z,71.85
2023-03-17T00:28:53.038Z,71.83
2023-03-17T00:31:23.866Z,72.20
2023-03-17T00:33:55.083Z,72.47
2023-03-17T00:36:26.127Z,72.27
2023-03-17T00:38:52.799Z,72.08
2023-03-17T00:41:19.895Z,72.27
2023-03-17T00:43:46.419Z,71.92
2023-03-17T00:46:19.674Z,72.57
2023-03-17T00:48:46.796Z,71.83
2023-03-17T00:51:13.334Z,72.45
2023-03-17T00:53:39.916Z,72.27
2023-03-17T00:56:14.484Z,72.42
2023-03-17T00:58:41.207Z,72.16
2023-03-17T01:01:08.731Z,72.46
2023-03-17T01:03:35.472Z,72.70
2023-03-17T01:06:03.419Z,71.87
2023-03-17T01:08:31.393Z,72.53
2023-03-17T01:10:58.596Z,72.68
2023-03-17T01:13:25.369Z,72.77
2023-03-17T01:15:52.553Z,72.62
2023-03-17T01:18:22.823Z,72.63
2023-03-17T01:20:50.289Z,72.37
2023-03-17T01:23:17.847Z,72.55
2023-03-17T01:25:44.884Z,72.65
2023-03-17T01:28:17.972Z,72.28
2023-03-17T01:30:45.225Z,72.41
2023-03-17T01:33:13.110Z,72.43
2023-03-17T01:35:41.461Z,72.50
2023-03-17T01:38:08.636Z,72.23
2023-03-17T01:40:44.386Z,72.34
2023-03-17T01:43:10.829Z,72.34
2023-03-17T01:46:17.125Z,72.02
2023-03-17T01:48:57.157Z,72.44
2023-03-17T01:51:33.244Z,72.14
2023-03-17T01:54:06.744Z,72.49
2023-03-17T01:56:33.608Z,72.34
2023-03-17T01:59:02.761Z,72.38
2023-03-17T02:01:37.392Z,72.47
2023-03-17T02:04:04.998Z,72.24
2023-03-17T02:06:32.362Z,72.47
2023-03-17T02:09:00.697Z,72.41
2023-03-17T02:11:28.533Z,72.10
2023-03-17T02:13:55.071Z,72.45
2023-03-17T02:16:21.639Z,72.41
2023-03-17T02:18:49.658Z,72.57
2023-03-17T02:21:25.191Z,72.84
2023-03-17T02:23:51.706Z,72.53
2023-03-17T02:26:20.041Z,72.76
2023-03-17T02:28:46.500Z,72.37
2023-03-17T02:31:13.118Z,72.73
2023-03-17T02:33:39.581Z,72.69
2023-03-17T02:36:06.350Z,73.03
2023-03-17T02:38:32.850Z,73.02
2023-03-17T02:40:59.299Z,72.50
2023-03-17T02:43:25.756Z,72.63
2023-03-17T02:45:52.269Z,72.71
2023-03-17T02:48:19.367Z,72.42
2023-03-17T02:50:45.970Z,72.50
2023-03-17T02:53:14.621Z,72.82
2023-03-17T02:55:42.098Z,72.46
2023-03-17T02:58:08.599Z,72.58
2023-03-17T03:00:35.101Z,72.59
2023-03-17T03:03:01.581Z,72.98
2023-03-17T03:05:28.841Z,72.92
2023-03-17T03:07:55.614Z,73.02
2023-03-17T03:10:22.109Z,72.99
2023-03-17T03:12:48.544Z,73.02
2023-03-17T03:15:15.678Z,72.65
2023-03-17T03:17:42.136Z,72.90
2023-03-17T03:20:11.456Z,72.61
2023-03-17T03:22:37.935Z,72.45
2023-03-17T03:25:05.081Z,72.28
2023-03-17T03:27:32.474Z,72.55
2023-03-17T03:29:58.938Z,72.50
2023-03-17T03:32:25.901Z,72.67
2023-03-17T03:34:52.942Z,72.75
2023-03-17T03:37:21.564Z,72.81
2023-03-17T03:39:48.005Z,72.79
2023-03-17T03:42:14.469Z,72.54
2023-03-17T03:44:40.948Z,72.33
2023-03-17T03:47:07.609Z,72.60
2023-03-17T03:49:34.078Z,72.01
2023-03-17T03:52:00.522Z,72.20
2023-03-17T03:54:27.013Z,71.97
2023-03-17T03:56:53.477Z,72.16
2023-03-17T03:59:20.045Z,72.08
2023-03-17T04:01:46.523Z,72.23
2023-03-17T04:04:12.948Z,72.39
2023-03-17T04:06:39.682Z,71.98
2023-03-17T04:09:10.806Z,72.07
2023-03-17T04:11:37.261Z,71.79
2023-03-17T04:14:04.123Z,71.97
2023-03-17T04:16:30.567Z,71.95
2023-03-17T04:18:57.723Z,72.08
2023-03-17T04:21:24.224Z,71.74
2023-03-17T04:23:50.687Z,71.87
2023-03-17T04:26:18.702Z,71.67
2023-03-17T04:28:45.200Z,71.41
2023-03-17T04:31:15.462Z,71.90
2023-03-17T04:33:42.299Z,71.82
2023-03-17T04:36:17.208Z,71.59
2023-03-17T04:38:43.653Z,71.63
2023-03-17T04:41:10.264Z,71.54
2023-03-17T04:43:36.934Z,71.85
2023-03-17T04:46:03.476Z,71.84
2023-03-17T04:48:30.001Z,71.65
2023-03-17T04:50:56.499Z,71.31
2023-03-17T04:53:23.303Z,71.21
2023-03-17T04:55:49.708Z,70.94
2023-03-17T04:58:29.972Z,70.98
2023-03-17T05:00:57.047Z,70.98
2023-03-17T05:03:27.621Z,71.07
2023-03-17T05:05:54.497Z,70.83
2023-03-17T05:08:20.972Z,70.94
2023-03-17T05:10:47.437Z,71.07
2023-03-17T05:13:13.972Z,71.10
2023-03-17T05:15:40.636Z,70.75
2023-03-17T05:18:07.132Z,70.96
2023-03-17T05:20:33.601Z,70.80
2023-03-17T05:23:00.029Z,70.69
2023-03-17T05:25:28.005Z,70.95
2023-03-17T05:27:54.575Z,71.01
2023-03-17T05:30:21.048Z,70.33
2023-03-17T05:32:47.591Z,70.72
2023-03-17T05:35:14.067Z,70.58
2023-03-17T05:37:40.713Z,70.80
2023-03-17T05:40:08.350Z,70.42
2023-03-17T05:42:34.941Z,70.75
2023-03-17T05:45:01.398Z,71.05
2023-03-17T05:47:28.442Z,70.93
2023-03-17T05:49:54.935Z,71.07
2023-03-17T05:52:22.083Z,70.92
2023-03-17T05:54:49.083Z,71.11
2023-03-17T05:57:16.265Z,71.38
2023-03-17T05:59:44.378Z,71.39
2023-03-17T06:02:11.566Z,71.43
2023-03-17T06:04:38.978Z,71.29
2023-03-17T06:07:06.195Z,71.04
2023-03-17T06:09:33.652Z,71.09
2023-03-17T06:12:00.459Z,71.35
2023-03-17T06:14:27.339Z,71.04
2023-03-17T06:16:54.145Z,71.16
2023-03-17T06:19:20.950Z,71.42
2023-03-17T06:21:48.223Z,71.41
2023-03-17T06:24:14.696Z,71.49
2023-03-17T06:26:42.455Z,71.08
2023-03-17T06:29:10.081Z,70.95
2023-03-17T06:31:37.337Z,71.63
2023-03-17T06:34:03.927Z,71.72
2023-03-17T06:36:32.126Z,71.71
2023-03-17T06:39:00.583Z,71.62
2023-03-17T06:41:27.564Z,71.36
2023-03-17T06:43:56.568Z,71.36
2023-03-17T06:46:24.625Z,71.28
2023-03-17T06:48:51.070Z,71.20
2023-03-17T06:51:17.532Z,71.93
2023-03-17T06:53:43.981Z,71.54
2023-03-17T06:56:23.516Z,71.43
2023-03-17T06:58:51.200Z,71.61
2023-03-17T07:01:17.787Z,71.83
2023-03-17T07:03:44.467Z,71.34
2023-03-17T07:06:11.177Z,70.23
2023-03-17T07:08:37.656Z,69.93
2023-03-17T07:11:04.580Z,70.10
2023-03-17T07:13:35.484Z,70.51
2023-03-17T07:16:05.428Z,70.20
2023-03-17T07:18:34.916Z,69.83
2023-03-17T07:21:02.249Z,70.01
2023-03-17T07:23:30.277Z,69.74
2023-03-17T07:25:59.825Z,70.05
2023-03-17T07:28:26.233Z,69.61
2023-03-17T07:30:52.706Z,69.56
2023-03-17T07:33:22.422Z,69.53
2023-03-17T07:35:49.707Z,69.34
2023-03-17T07:38:17.819Z,69.54
2023-03-17T07:40:47.635Z,69.52
2023-03-17T07:43:15.173Z,70.06
2023-03-17T07:45:42.296Z,68.99
2023-03-17T07:48:09.595Z,69.47
2023-03-17T07:50:37.143Z,68.80
2023-03-17T07:53:04.677Z,68.61
2023-03-17T07:55:32.630Z,68.56
2023-03-17T07:57:59.560Z,68.66
2023-03-17T08:00:27.096Z,67.92
2023-03-17T08:03:06.963Z,68.08
2023-03-17T08:05:35.670Z,67.75
2023-03-17T08:08:02.110Z,68.24
2023-03-17T08:10:28.684Z,67.52
2023-03-17T08:12:55.682Z,67.53
2023-03-17T08:15:22.541Z,67.24
2023-03-17T08:17:49.117Z,67.68
2023-03-17T08:20:15.748Z,67.59
2023-03-17T08:22:42.317Z,67.22
2023-03-17T08:25:09.791Z,67.08
2023-03-17T08:27:36.281Z,67.22
2023-03-17T08:30:04.759Z,66.78
2023-03-17T08:32:31.271Z,66.03
2023-03-17T08:35:00.063Z,65.64
2023-03-17T08:37:26.672Z,65.58
2023-03-17T08:39:53.099Z,65.41
2023-03-17T08:42:19.513Z,65.15
2023-03-17T08:44:46.532Z,65.35
2023-03-17T08:47:13.012Z,64.70
2023-03-17T08:49:39.474Z,65.07
2023-03-17T08:52:05.941Z,65.58
2023-03-17T08:54:33.992Z,66.02
2023-03-17T08:57:04.017Z,64.38
2023-03-17T08:59:30.534Z,63.83
2023-03-17T09:01:57.019Z,63.02
2023-03-17T09:04:23.581Z,62.98
2023-03-17T09:07:02.746Z,63.06
2023-03-17T09:09:31.223Z,63.68
2023-03-17T09:11:57.720Z,63.51
2023-03-17T09:14:24.927Z,63.36
2023-03-17T09:16:52.441Z,63.17
2023-03-17T09:19:21.652Z,63.64
2023-03-17T09:21:48.606Z,63.66
2023-03-17T09:24:15.043Z,63.36
2023-03-17T09:26:41.846Z,62.78
2023-03-17T09:29:09.334Z,63.21
2023-03-17T09:31:43.458Z,62.55
2023-03-17T09:34:10.907Z,63.09
2023-03-17T09:36:37.687Z,62.97
2023-03-17T09:39:04.163Z,62.80
2023-03-17T09:41:58.848Z,62.99
2023-03-17T09:44:40.491Z,62.65
2023-03-17T09:47:40.522Z,62.66
2023-03-17T09:50:15.963Z,62.42
2023-03-17T09:52:43.773Z,62.68
2023-03-17T09:55:20.106Z,62.63
2023-03-17T09:57:47.174Z,62.05
2023-03-17T10:00:23.093Z,62.03
2023-03-17T10:02:49.563Z,61.17
2023-03-17T10:05:24.980Z,60.83
2023-03-17T10:07:59.450Z,60.17
2023-03-17T10:10:42.487Z,60.52
2023-03-17T10:13:41.570Z,60.15
2023-03-17T10:16:14.388Z,60.63
2023-03-17T10:18:49.781Z,60.99
2023-03-17T10:21:24.282Z,60.69
2023-03-17T10:23:53.427Z,60.67
2023-03-17T10:26:42.194Z,61.48
2023-03-17T10:29:16.246Z,61.64
2023-03-17T10:31:42.747Z,61.97
2023-03-17T10:34:19.343Z,61.55
2023-03-17T10:36:53.609Z,62.29
2023-03-17T10:39:24.097Z,60.45
2023-03-17T10:41:59.735Z,60.56
2023-03-17T10:44:49.790Z,59.95
2023-03-17T10:47:50.145Z,59.89
2023-03-17T10:50:25.294Z,60.25
2023-03-17T10:53:00.531Z,60.83
2023-03-17T10:55:42.638Z,60.65
2023-03-17T10:58:36.324Z,60.69
2023-03-17T11:01:15.497Z,59.58
2023-03-17T11:03:42.537Z,58.87
2023-03-17T11:06:13.251Z,59.17
2023-03-17T11:08:51.444Z,59.14
2023-03-17T11:11:45.905Z,58.82
2023-03-17T11:14:15.399Z,59.50
2023-03-17T11:16:55.333Z,59.50
2023-03-17T11:19:28.641Z,59.63
2023-03-17T11:22:04.966Z,58.60
2023-03-17T11:24:36.310Z,59.03
2023-03-17T11:27:11.990Z,58.67
2023-03-17T11:29:41.167Z,58.78
2023-03-17T11:32:28.764Z,58.93
2023-03-17T11:35:24.254Z,59.10
2023-03-17T11:38:18.881Z,59.89
2023-03-17T11:41:00.879Z,60.10
2023-03-17T11:44:16.615Z,58.97
2023-03-17T11:46:54.562Z,58.85
2023-03-17T11:49:35.964Z,58.65
2023-03-17T11:52:39.370Z,57.95
2023-03-17T11:55:16.416Z,58.37
2023-03-17T11:57:59.900Z,58.43
2023-03-17T12:00:34.494Z,58.31
2023-03-17T12:03:13.324Z,59.53
2023-03-17T12:05:42.677Z,59.22
2023-03-17T12:08:19.446Z,58.28
2023-03-17T12:10:50.573Z,57.81
2023-03-17T12:13:40.266Z,58.26
2023-03-17T12:16:20.225Z,58.30
2023-03-17T12:19:07.200Z,58.51
2023-03-17T12:21:46.118Z,57.98
2023-03-17T12:24:50.313Z,58.00
2023-03-17T12:27:25.950Z,58.13
2023-03-17T12:29:59.109Z,57.91
2023-03-17T12:32:41.879Z,57.40
2023-03-17T12:35:29.314Z,57.92
2023-03-17T12:37:59.445Z,58.12
2023-03-17T12:40:34.944Z,57.78
2023-03-17T12:43:34.668Z,58.05
2023-03-17T12:46:10.299Z,58.28
2023-03-17T12:48:39.674Z,57.97
2023-03-17T12:51:40.073Z,58.02
2023-03-17T12:54:15.313Z,58.06
2023-03-17T12:56:47.216Z,58.39
2023-03-17T12:59:21.117Z,58.35
2023-03-17T13:02:18.196Z,58.11
2023-03-17T13:05:02.020Z,58.43
2023-03-17T13:07:56.116Z,58.26
2023-03-17T13:10:37.817Z,58.25
2023-03-17T13:13:23.210Z,58.55
2023-03-17T13:15:57.778Z,58.92
2023-03-17T13:18:46.995Z,58.34
2023-03-17T13:21:17.170Z,58.46
2023-03-17T13:23:47.314Z,58.54
2023-03-17T13:26:19.009Z,58.97
2023-03-17T13:28:49.294Z,58.89
2023-03-17T13:31:29.162Z,58.92
2023-03-17T13:34:17.771Z,59.05
2023-03-17T13:36:52.721Z,58.66
2023-03-17T13:39:27.739Z,58.47
2023-03-17T13:42:19.187Z,58.20
2023-03-17T13:45:05.481Z,58.60
2023-03-17T13:47:38.323Z,58.11
2023-03-17T13:50:24.399Z,58.04
2023-03-17T13:53:08.622Z,58.19
2023-03-17T13:55:36.829Z,58.71
2023-03-17T13:58:11.876Z,57.80
2023-03-17T14:00:41.508Z,57.60
2023-03-17T14:03:16.308Z,57.70
2023-03-17T14:05:47.836Z,58.05
2023-03-17T14:08:31.972Z,58.23
2023-03-17T14:11:01.567Z,57.65
2023-03-17T14:13:32.289Z,56.99
2023-03-17T14:16:03.718Z,57.81
2023-03-17T14:18:39.013Z,58.08
2023-03-17T14:21:11.642Z,57.94
2023-03-17T14:23:38.260Z,57.79
2023-03-17T14:26:06.607Z,57.68
2023-03-17T14:28:34.777Z,57.28
2023-03-17T14:31:06.421Z,57.17
2023-03-17T14:33:36.661Z,57.26
2023-03-17T14:36:07.860Z,57.20
2023-03-17T14:38:37.025Z,57.33
2023-03-17T14:41:06.598Z,57.38
2023-03-17T14:43:35.698Z,57.75
2023-03-17T14:46:07.940Z,57.39
2023-03-17T14:48:38.058Z,57.44
2023-03-17T14:51:16.117Z,57.72
2023-03-17T14:53:47.018Z,56.75
2023-03-17T14:56:13.948Z,57.32
2023-03-17T14:58:46.012Z,56.25
2023-03-17T15:01:20.088Z,56.18
2023-03-17T15:04:15.779Z,57.02
2023-03-17T15:07:00.152Z,56.35
2023-03-17T15:09:38.213Z,56.88
2023-03-17T15:12:19.249Z,56.22
2023-03-17T15:14:46.465Z,55.91
2023-03-17T15:17:20.707Z,56.23
2023-03-17T15:19:52.730Z,56.83
2023-03-17T15:22:30.799Z,56.30
2023-03-17T15:25:16.695Z,56.66
2023-03-17T15:27:44.350Z,56.20
2023-03-17T15:30:12.263Z,55.78
2023-03-17T15:32:39.749Z,55.68
2023-03-17T15:35:07.871Z,56.51
2023-03-17T15:37:35.425Z,56.11
2023-03-17T15:40:05.666Z,56.10
2023-03-17T15:42:36.131Z,56.66
2023-03-17T15:45:04.849Z,56.59
2023-03-17T15:47:33.864Z,56.50
2023-03-17T15:50:10.017Z,57.34
2023-03-17T15:52:36.527Z,56.46
2023-03-17T15:55:16.641Z,57.03
2023-03-17T15:57:50.760Z,56.81
2023-03-17T16:00:22.809Z,56.84
2023-03-17T16:02:52.216Z,57.20
2023-03-17T16:05:22.276Z,56.28
2023-03-17T16:07:48.986Z,56.80
2023-03-17T16:10:21.710Z,57.08
2023-03-17T16:12:48.901Z,57.60
2023-03-17T16:15:24.178Z,57.40
2023-03-17T16:17:59.686Z,57.91
2023-03-17T16:20:31.426Z,58.38
2023-03-17T16:23:07.266Z,58.66
2023-03-17T16:25:37.661Z,57.65
2023-03-17T16:28:32.170Z,58.42
2023-03-17T16:31:01.028Z,58.89
2023-03-17T16:33:39.065Z,58.52
2023-03-17T16:36:09.518Z,58.47
2023-03-17T16:38:36.085Z,59.16
2023-03-17T16:41:16.624Z,59.26
2023-03-17T16:43:44.825Z,59.07
2023-03-17T16:46:14.072Z,59.09
2023-03-17T16:48:40.636Z,59.16
2023-03-17T16:51:07.193Z,59.95
2023-03-17T16:53:33.821Z,59.39
2023-03-17T16:56:00.303Z,60.04
2023-03-17T16:58:32.896Z,60.71
2023-03-17T17:01:02.493Z,61.58
2023-03-17T17:03:29.633Z,61.57
2023-03-17T17:05:56.205Z,61.60
2023-03-17T17:08:22.981Z,61.50
2023-03-17T17:10:50.248Z,62.12
2023-03-17T17:13:16.835Z,62.75
2023-03-17T17:15:43.517Z,62.94
2023-03-17T17:18:22.041Z,63.53
2023-03-17T17:20:49.319Z,63.82
2023-03-17T17:23:21.532Z,64.26
2023-03-17T17:25:49.338Z,64.65
2023-03-17T17:28:18.643Z,64.94
2023-03-17T17:30:50.178Z,64.65
2023-03-17T17:33:17.933Z,64.91
2023-03-17T17:35:45.372Z,65.38
2023-03-17T17:38:26.676Z,65.30
2023-03-17T17:41:00.860Z,65.60
2023-03-17T17:43:27.386Z,65.60
2023-03-17T17:45:54.787Z,66.09
2023-03-17T17:48:23.711Z,66.15
2023-03-17T17:50:51.870Z,66.47
2023-03-17T17:53:18.752Z,66.37
2023-03-17T17:55:47.325Z,66.50
2023-03-17T17:58:18.852Z,66.39
2023-03-17T18:00:45.337Z,66.56
2023-03-17T18:03:12.256Z,66.54
2023-03-17T18:05:40.650Z,66.38
2023-03-17T18:08:07.094Z,67.19
2023-03-17T18:10:34.588Z,67.49
2023-03-17T18:13:01.262Z,66.87
2023-03-17T18:15:27.841Z,66.88
2023-03-17T18:17:56.429Z,67.63
2023-03-17T18:20:24.045Z,67.18
2023-03-17T18:22:52.314Z,67.19
2023-03-17T18:25:19.742Z,66.87
2023-03-17T18:27:47.451Z,67.38
2023-03-17T18:30:35.141Z,67.26
2023-03-17T18:33:13.295Z,67.07
2023-03-17T18:35:40.234Z,67.25
2023-03-17T18:38:08.242Z,67.94
2023-03-17T18:40:36.013Z,67.60
2023-03-17T18:43:02.608Z,67.75
2023-03-17T18:45:29.074Z,68.21
2023-03-17T18:47:55.822Z,68.38
2023-03-17T18:50:22.524Z,68.08
2023-03-17T18:52:49.859Z,68.38
2023-03-17T18:55:17.096Z,68.32
2023-03-17T18:57:44.930Z,68.63
2023-03-17T19:00:14.042Z,68.27
2023-03-17T19:02:40.715Z,68.76
2023-03-17T19:05:07.556Z,68.10
2023-03-17T19:07:34.661Z,68.15
2023-03-17T19:10:01.116Z,68.21
2023-03-17T19:12:28.330Z,67.77
2023-03-17T19:14:55.483Z,68.15
2023-03-17T19:17:22.703Z,68.16
2023-03-17T19:19:50.532Z,68.23
2023-03-17T19:22:17.172Z,68.13
2023-03-17T19:24:43.997Z,68.29
2023-03-17T19:27:10.472Z,68.22
2023-03-17T19:29:36.871Z,67.44
2023-03-17T19:32:03.858Z,68.18
2023-03-17T19:34:30.410Z,68.07
2023-03-17T19:36:56.874Z,67.39
2023-03-17T19:39:23.684Z,67.15
2023-03-17T19:41:53.254Z,67.68
2023-03-17T19:44:19.695Z,67.27
2023-03-17T19:46:46.255Z,67.43
2023-03-17T19:49:12.699Z,66.59
2023-03-17T19:51:39.260Z,66.83
2023-03-17T19:54:06.075Z,66.55
2023-03-17T19:56:33.677Z,66.69
2023-03-17T19:59:00.522Z,66.89
2023-03-17T20:01:28.979Z,66.95
2023-03-17T20:03:55.543Z,66.71
2023-03-17T20:06:22.183Z,67.01
2023-03-17T20:08:48.605Z,67.12
2023-03-17T20:11:15.044Z,67.33
2023-03-17T20:13:41.854Z,66.91
2023-03-17T20:16:09.044Z,67.21
2023-03-17T20:18:36.019Z,66.86
2023-03-17T20:21:05.664Z,67.36
2023-03-17T20:23:32.923Z,67.30
2023-03-17T20:26:00.396Z,67.61
2023-03-17T20:28:29.837Z,67.05
2023-03-17T20:31:00.382Z,67.19
2023-03-17T20:33:27.809Z,66.69
2023-03-17T20:35:54.417Z,66.83
2023-03-17T20:38:21.230Z,66.94
2023-03-17T20:40:47.739Z,66.51
2023-03-17T20:43:14.225Z,67.01
2023-03-17T20:45:41.124Z,66.84
2023-03-17T20:48:09.337Z,66.96
2023-03-17T20:50:36.509Z,66.62
2023-03-17T20:53:02.895Z,66.88
2023-03-17T20:55:30.766Z,66.92
2023-03-17T20:57:58.841Z,67.07
2023-03-17T21:00:26.169Z,67.01
2023-03-17T21:02:53.117Z,66.77
2023-03-17T21:05:23.729Z,67.39
2023-03-17T21:07:50.624Z,67.24
2023-03-17T21:10:17.960Z,67.36
2023-03-17T21:12:45.040Z,67.33
2023-03-17T21:15:12.985Z,67.11
2023-03-17T21:17:40.410Z,67.48
2023-03-17T21:20:09.546Z,67.74
2023-03-17T21:22:36.859Z,67.63
2023-03-17T21:25:08.649Z,67.88
2023-03-17T21:27:40.658Z,67.80
2023-03-17T21:30:11.926Z,68.56
2023-03-17T21:32:40.353Z,68.98
2023-03-17T21:35:08.087Z,68.64
2023-03-17T21:37:35.069Z,68.54
2023-03-17T21:40:01.696Z,68.82
2023-03-17T21:42:28.361Z,68.90
2023-03-17T21:44:55.172Z,68.67
2023-03-17T21:47:21.576Z,69.11
2023-03-17T21:49:48.031Z,68.82
2023-03-17T21:52:15.083Z,69.33
2023-03-17T21:54:41.950Z,69.61
2023-03-17T21:57:08.676Z,69.73
2023-03-17T21:59:35.705Z,69.54
2023-03-17T22:02:02.923Z,69.91
2023-03-17T22:04:29.939Z,69.90
2023-03-17T22:06:58.763Z,69.74
2023-03-17T22:09:25.301Z,70.11
2023-03-17T22:11:51.774Z,69.77
2023-03-17T22:14:20.503Z,70.29
2023-03-17T22:16:48.325Z,70.75
2023-03-17T22:19:15.695Z,70.80
2023-03-17T22:21:42.777Z,70.50
2023-03-17T22:24:09.306Z,70.83
2023-03-17T22:26:35.772Z,70.90
2023-03-17T22:29:02.397Z,71.12
2023-03-17T22:31:29.659Z,71.02
2023-03-17T22:33:58.334Z,71.33
2023-03-17T22:36:25.629Z,71.21
2023-03-17T22:38:52.613Z,71.80
2023-03-17T22:41:22.720Z,72.24
2023-03-17T22:43:49.684Z,71.85
2023-03-17T22:46:16.933Z,72.06
2023-03-17T22:48:44.423Z,72.16
2023-03-17T22:51:16.742Z,72.34
2023-03-17T22:53:44.245Z,72.59
2023-03-17T22:56:12.220Z,72.89
2023-03-17T22:58:39.281Z,73.00
2023-03-17T23:01:09.108Z,72.78
2023-03-17T23:03:35.753Z,73.45
2023-03-17T23:06:03.892Z,73.66
2023-03-17T23:08:34.972Z,73.18
2023-03-17T23:11:08.701Z,73.72
2023-03-17T23:13:35.542Z,74.21
2023-03-17T23:16:02.984Z,73.70
2023-03-17T23:18:29.375Z,73.68
2023-03-17T23:20:55.780Z,74.10
2023-03-17T23:23:22.188Z,74.33
2023-03-17T23:25:49.045Z,74.72
2023-03-17T23:28:15.972Z,74.79
2023-03-17T23:30:45.714Z,74.96
2023-03-17T23:33:12.303Z,75.14
2023-03-17T23:35:39.573Z,75.74
2023-03-17T23:38:06.133Z,75.62
2023-03-17T23:40:34.417Z,75.75
2023-03-17T23:43:01.888Z,76.00
2023-03-17T23:45:28.487Z,75.96
2023-03-17T23:47:57.310Z,76.06
2023-03-17T23:50:23.797Z,76.45
2023-03-17T23:52:50.482Z,76.85
2023-03-17T23:55:17.380Z,77.38
2023-03-17T23:57:44.288Z,77.46
